sensor_id;sensor_type;location;lat;lon;timestamp;pressure;altitude;pressure_sealevel;temperature;humidity
8051;BME280;4068;42.158;24.732;2024-02-21T00:00:13;100387.19;;;5.74;100.00
8051;BME280;4068;42.158;24.732;2024-02-21T00:02:40;100423.34;;;5.90;100.00
8051;BME280;4068;42.158;24.732;2024-02-21T00:05:05;100424.91;;;5.94;100.00
8051;BME280;4068;42.158;24.732;2024-02-21T00:07:31;100434.03;;;5.86;100.00
8051;BME280;4068;42.158;24.732;2024-02-21T00:09:56;100433.31;;;5.83;100.00
8051;BME280;4068;42.158;24.732;2024-02-21T00:12:22;100426.41;;;5.80;100.00
8051;BME280;4068;42.158;24.732;2024-02-21T00:14:47;100410.13;;;5.53;100.00
8051;BME280;4068;42.158;24.732;2024-02-21T00:17:13;100423.44;;;5.69;100.00
8051;BME280;4068;42.158;24.732;2024-02-21T00:19:38;100420.06;;;5.65;100.00
8051;BME280;4068;42.158;24.732;2024-02-21T00:22:04;100428.94;;;5.63;100.00
8051;BME280;4068;42.158;24.732;2024-02-21T00:24:29;100412.31;;;5.62;100.00
8051;BME280;4068;42.158;24.732;2024-02-21T00:26:55;100398.19;;;5.46;100.00
8051;BME280;4068;42.158;24.732;2024-02-21T00:29:20;100422.13;;;5.78;100.00
8051;BME280;4068;42.158;24.732;2024-02-21T00:31:46;100387.44;;;5.50;100.00
8051;BME280;4068;42.158;24.732;2024-02-21T00:34:11;100410.50;;;5.64;100.00
8051;BME280;4068;42.158;24.732;2024-02-21T00:36:38;100376.41;;;5.42;100.00
8051;BME280;4068;42.158;24.732;2024-02-21T00:39:03;100409.00;;;5.59;100.00
8051;BME280;4068;42.158;24.732;2024-02-21T00:41:29;100404.06;;;5.51;100.00
8051;BME280;4068;42.158;24.732;2024-02-21T00:43:55;100400.28;;;5.38;100.00
8051;BME280;4068;42.158;24.732;2024-02-21T00:46:20;100406.41;;;5.38;100.00
8051;BME280;4068;42.158;24.732;2024-02-21T00:48:46;100372.44;;;5.13;100.00
8051;BME280;4068;42.158;24.732;2024-02-21T00:51:11;100397.28;;;5.26;100.00
8051;BME280;4068;42.158;24.732;2024-02-21T00:53:37;100399.84;;;5.28;100.00
8051;BME280;4068;42.158;24.732;2024-02-21T00:56:05;100361.50;;;5.03;100.00
8051;BME280;4068;42.158;24.732;2024-02-21T00:58:30;100401.88;;;5.21;100.00
8051;BME280;4068;42.158;24.732;2024-02-21T01:00:56;100395.94;;;5.17;100.00
8051;BME280;4068;42.158;24.732;2024-02-21T01:03:21;100373.31;;;5.13;100.00
8051;BME280;4068;42.158;24.732;2024-02-21T01:05:47;100392.25;;;5.41;100.00
8051;BME280;4068;42.158;24.732;2024-02-21T01:08:12;100355.34;;;5.42;100.00
8051;BME280;4068;42.158;24.732;2024-02-21T01:10:38;100386.06;;;5.61;100.00
8051;BME280;4068;42.158;24.732;2024-02-21T01:13:03;100382.25;;;5.49;100.00
8051;BME280;4068;42.158;24.732;2024-02-21T01:15:29;100380.53;;;5.48;100.00
8051;BME280;4068;42.158;24.732;2024-02-21T01:17:54;100383.31;;;5.45;100.00
8051;BME280;4068;42.158;24.732;2024-02-21T01:20:21;100382.88;;;5.54;100.00
8051;BME280;4068;42.158;24.732;2024-02-21T01:22:46;100379.25;;;5.57;100.00
8051;BME280;4068;42.158;24.732;2024-02-21T01:25:12;100369.94;;;5.49;100.00
8051;BME280;4068;42.158;24.732;2024-02-21T01:27:37;100340.78;;;5.35;100.00
8051;BME280;4068;42.158;24.732;2024-02-21T01:30:04;100345.75;;;5.41;100.00
8051;BME280;4068;42.158;24.732;2024-02-21T01:32:29;100366.81;;;5.60;100.00
8051;BME280;4068;42.158;24.732;2024-02-21T01:34:55;100364.09;;;5.62;100.00
8051;BME280;4068;42.158;24.732;2024-02-21T01:37:20;100355.22;;;5.64;100.00
8051;BME280;4068;42.158;24.732;2024-02-21T01:39:46;100367.59;;;5.62;100.00
8051;BME280;4068;42.158;24.732;2024-02-21T01:42:11;100362.00;;;5.68;100.00
8051;BME280;4068;42.158;24.732;2024-02-21T01:44:37;100332.19;;;5.50;100.00
8051;BME280;4068;42.158;24.732;2024-02-21T01:47:03;100362.81;;;5.70;100.00
8051;BME280;4068;42.158;24.732;2024-02-21T01:49:29;100324.72;;;5.60;100.00
8051;BME280;4068;42.158;24.732;2024-02-21T01:51:55;100345.00;;;5.95;100.00
8051;BME280;4068;42.158;24.732;2024-02-21T01:54:21;100351.63;;;6.03;100.00
8051;BME280;4068;42.158;24.732;2024-02-21T01:56:47;100352.88;;;6.14;100.00
8051;BME280;4068;42.158;24.732;2024-02-21T01:59:15;100327.22;;;6.00;100.00
8051;BME280;4068;42.158;24.732;2024-02-21T02:01:41;100359.06;;;6.13;100.00
8051;BME280;4068;42.158;24.732;2024-02-21T02:04:07;100316.69;;;5.81;100.00
8051;BME280;4068;42.158;24.732;2024-02-21T02:06:34;100327.94;;;5.84;100.00
8051;BME280;4068;42.158;24.732;2024-02-21T02:09:00;100339.88;;;5.92;100.00
8051;BME280;4068;42.158;24.732;2024-02-21T02:11:25;100343.88;;;6.00;100.00
8051;BME280;4068;42.158;24.732;2024-02-21T02:13:51;100343.66;;;6.05;100.00
8051;BME280;4068;42.158;24.732;2024-02-21T02:16:16;100344.38;;;6.09;100.00
8051;BME280;4068;42.158;24.732;2024-02-21T02:18:42;100352.78;;;6.15;100.00
8051;BME280;4068;42.158;24.732;2024-02-21T02:21:13;100336.38;;;6.10;100.00
8051;BME280;4068;42.158;24.732;2024-02-21T02:23:42;100349.47;;;6.29;100.00
8051;BME280;4068;42.158;24.732;2024-02-21T02:26:07;100347.00;;;6.26;100.00
8051;BME280;4068;42.158;24.732;2024-02-21T02:28:33;100349.00;;;6.21;100.00
8051;BME280;4068;42.158;24.732;2024-02-21T02:30:58;100349.81;;;6.23;100.00
8051;BME280;4068;42.158;24.732;2024-02-21T02:33:24;100348.56;;;6.30;100.00
8051;BME280;4068;42.158;24.732;2024-02-21T02:35:49;100353.84;;;6.30;100.00
8051;BME280;4068;42.158;24.732;2024-02-21T02:38:15;100342.34;;;6.31;100.00
8051;BME280;4068;42.158;24.732;2024-02-21T02:40:41;100334.06;;;6.21;100.00
8051;BME280;4068;42.158;24.732;2024-02-21T02:43:07;100351.69;;;6.38;100.00
8051;BME280;4068;42.158;24.732;2024-02-21T02:45:33;100344.84;;;6.34;100.00
8051;BME280;4068;42.158;24.732;2024-02-21T02:47:59;100350.28;;;6.49;100.00
8051;BME280;4068;42.158;24.732;2024-02-21T02:50:25;100360.56;;;6.53;100.00
8051;BME280;4068;42.158;24.732;2024-02-21T02:52:52;100356.16;;;6.54;100.00
8051;BME280;4068;42.158;24.732;2024-02-21T02:55:18;100352.03;;;6.48;100.00
8051;BME280;4068;42.158;24.732;2024-02-21T02:57:43;100353.84;;;6.48;100.00
8051;BME280;4068;42.158;24.732;2024-02-21T03:00:13;100322.38;;;6.27;100.00
8051;BME280;4068;42.158;24.732;2024-02-21T03:02:42;100356.47;;;6.48;100.00
8051;BME280;4068;42.158;24.732;2024-02-21T03:05:21;100352.28;;;6.44;100.00
8051;BME280;4068;42.158;24.732;2024-02-21T03:07:48;100327.50;;;6.30;100.00
8051;BME280;4068;42.158;24.732;2024-02-21T03:10:14;100343.81;;;6.37;100.00
8051;BME280;4068;42.158;24.732;2024-02-21T03:12:41;100348.81;;;6.43;100.00
8051;BME280;4068;42.158;24.732;2024-02-21T03:15:07;100350.56;;;6.43;100.00
8051;BME280;4068;42.158;24.732;2024-02-21T03:17:33;100336.88;;;6.36;100.00
8051;BME280;4068;42.158;24.732;2024-02-21T03:20:02;100357.22;;;6.50;100.00
8051;BME280;4068;42.158;24.732;2024-02-21T03:22:30;100357.22;;;6.50;100.00
8051;BME280;4068;42.158;24.732;2024-02-21T03:24:56;100350.88;;;6.54;100.00
8051;BME280;4068;42.158;24.732;2024-02-21T03:27:21;100349.13;;;6.54;100.00
8051;BME280;4068;42.158;24.732;2024-02-21T03:29:47;100340.25;;;6.55;100.00
8051;BME280;4068;42.158;24.732;2024-02-21T03:32:13;100309.53;;;6.38;100.00
8051;BME280;4068;42.158;24.732;2024-02-21T03:34:38;100340.72;;;6.64;100.00
8051;BME280;4068;42.158;24.732;2024-02-21T03:37:03;100346.22;;;6.77;100.00
8051;BME280;4068;42.158;24.732;2024-02-21T03:39:32;100344.75;;;6.88;100.00
8051;BME280;4068;42.158;24.732;2024-02-21T03:41:58;100334.75;;;6.78;100.00
8051;BME280;4068;42.158;24.732;2024-02-21T03:44:26;100343.88;;;6.88;100.00
8051;BME280;4068;42.158;24.732;2024-02-21T03:46:52;100337.91;;;6.84;100.00
8051;BME280;4068;42.158;24.732;2024-02-21T03:49:17;100339.38;;;6.72;100.00
8051;BME280;4068;42.158;24.732;2024-02-21T03:51:43;100344.56;;;6.74;100.00
8051;BME280;4068;42.158;24.732;2024-02-21T03:54:08;100336.66;;;6.74;100.00
8051;BME280;4068;42.158;24.732;2024-02-21T03:56:37;100323.06;;;6.66;100.00
8051;BME280;4068;42.158;24.732;2024-02-21T03:59:08;100349.59;;;6.96;100.00
8051;BME280;4068;42.158;24.732;2024-02-21T04:01:35;100351.69;;;6.89;100.00
8051;BME280;4068;42.158;24.732;2024-02-21T04:04:01;100320.50;;;6.64;100.00
8051;BME280;4068;42.158;24.732;2024-02-21T04:06:26;100349.00;;;6.73;100.00
8051;BME280;4068;42.158;24.732;2024-02-21T04:08:52;100353.34;;;6.74;100.00
8051;BME280;4068;42.158;24.732;2024-02-21T04:11:17;100350.31;;;6.82;100.00
8051;BME280;4068;42.158;24.732;2024-02-21T04:13:47;100354.28;;;6.73;100.00
8051;BME280;4068;42.158;24.732;2024-02-21T04:16:15;100353.81;;;6.65;100.00
8051;BME280;4068;42.158;24.732;2024-02-21T04:18:41;100344.53;;;6.58;100.00
8051;BME280;4068;42.158;24.732;2024-02-21T04:21:07;100354.13;;;6.59;100.00
8051;BME280;4068;42.158;24.732;2024-02-21T04:23:32;100350.97;;;6.52;100.00
8051;BME280;4068;42.158;24.732;2024-02-21T04:25:58;100356.63;;;6.45;100.00
8051;BME280;4068;42.158;24.732;2024-02-21T04:28:23;100346.31;;;6.40;100.00
8051;BME280;4068;42.158;24.732;2024-02-21T04:30:49;100368.88;;;6.46;100.00
8051;BME280;4068;42.158;24.732;2024-02-21T04:33:14;100364.53;;;6.45;100.00
8051;BME280;4068;42.158;24.732;2024-02-21T04:35:40;100374.00;;;6.49;100.00
8051;BME280;4068;42.158;24.732;2024-02-21T04:38:05;100367.59;;;6.35;100.00
8051;BME280;4068;42.158;24.732;2024-02-21T04:40:31;100372.03;;;6.17;100.00
8051;BME280;4068;42.158;24.732;2024-02-21T04:42:57;100362.91;;;6.05;100.00
8051;BME280;4068;42.158;24.732;2024-02-21T04:45:23;100362.78;;;5.90;100.00
8051;BME280;4068;42.158;24.732;2024-02-21T04:47:48;100374.94;;;5.92;100.00
8051;BME280;4068;42.158;24.732;2024-02-21T04:50:14;100365.25;;;5.93;100.00
8051;BME280;4068;42.158;24.732;2024-02-21T04:52:40;100347.78;;;5.73;100.00
8051;BME280;4068;42.158;24.732;2024-02-21T04:55:05;100383.16;;;5.86;100.00
8051;BME280;4068;42.158;24.732;2024-02-21T04:57:31;100358.16;;;5.76;100.00
8051;BME280;4068;42.158;24.732;2024-02-21T04:59:57;100389.69;;;5.96;100.00
8051;BME280;4068;42.158;24.732;2024-02-21T05:02:22;100383.38;;;6.00;100.00
8051;BME280;4068;42.158;24.732;2024-02-21T05:04:49;100386.78;;;6.02;100.00
8051;BME280;4068;42.158;24.732;2024-02-21T05:07:15;100390.53;;;5.97;100.00
8051;BME280;4068;42.158;24.732;2024-02-21T05:09:44;100390.28;;;6.03;100.00
8051;BME280;4068;42.158;24.732;2024-02-21T05:12:09;100397.59;;;5.96;100.00
8051;BME280;4068;42.158;24.732;2024-02-21T05:14:35;100393.34;;;5.75;100.00
8051;BME280;4068;42.158;24.732;2024-02-21T05:17:00;100395.25;;;5.71;100.00
8051;BME280;4068;42.158;24.732;2024-02-21T05:19:26;100361.34;;;5.46;100.00
8051;BME280;4068;42.158;24.732;2024-02-21T05:21:51;100399.44;;;5.75;100.00
8051;BME280;4068;42.158;24.732;2024-02-21T05:24:17;100383.81;;;5.72;100.00
8051;BME280;4068;42.158;24.732;2024-02-21T05:26:42;100391.91;;;5.86;100.00
8051;BME280;4068;42.158;24.732;2024-02-21T05:29:08;100392.66;;;5.88;100.00
8051;BME280;4068;42.158;24.732;2024-02-21T05:34:17;100401.28;;;5.92;100.00
8051;BME280;4068;42.158;24.732;2024-02-21T05:36:43;100404.13;;;6.07;100.00
8051;BME280;4068;42.158;24.732;2024-02-21T05:39:09;100377.31;;;5.98;100.00
8051;BME280;4068;42.158;24.732;2024-02-21T05:41:34;100407.94;;;6.18;100.00
8051;BME280;4068;42.158;24.732;2024-02-21T05:44:00;100418.38;;;6.21;100.00
8051;BME280;4068;42.158;24.732;2024-02-21T05:46:25;100414.19;;;6.35;100.00
8051;BME280;4068;42.158;24.732;2024-02-21T05:48:51;100421.34;;;6.33;100.00
8051;BME280;4068;42.158;24.732;2024-02-21T05:51:16;100424.56;;;6.38;100.00
8051;BME280;4068;42.158;24.732;2024-02-21T05:53:42;100429.63;;;6.43;100.00
8051;BME280;4068;42.158;24.732;2024-02-21T05:56:14;100394.31;;;6.10;100.00
8051;BME280;4068;42.158;24.732;2024-02-21T05:58:40;100397.72;;;6.12;100.00
8051;BME280;4068;42.158;24.732;2024-02-21T06:01:06;100412.31;;;6.37;100.00
8051;BME280;4068;42.158;24.732;2024-02-21T06:03:34;100424.91;;;6.49;100.00
8051;BME280;4068;42.158;24.732;2024-02-21T06:06:01;100413.19;;;6.55;100.00
8051;BME280;4068;42.158;24.732;2024-02-21T06:08:27;100405.06;;;6.60;100.00
8051;BME280;4068;42.158;24.732;2024-02-21T06:10:52;100437.16;;;6.85;100.00
8051;BME280;4068;42.158;24.732;2024-02-21T06:13:24;100432.75;;;6.86;100.00
8051;BME280;4068;42.158;24.732;2024-02-21T06:15:50;100434.38;;;7.06;100.00
8051;BME280;4068;42.158;24.732;2024-02-21T06:18:19;100439.94;;;7.17;100.00
8051;BME280;4068;42.158;24.732;2024-02-21T06:20:45;100451.75;;;7.43;100.00
8051;BME280;4068;42.158;24.732;2024-02-21T06:23:16;100449.81;;;7.47;100.00
8051;BME280;4068;42.158;24.732;2024-02-21T06:25:42;100454.44;;;7.59;100.00
8051;BME280;4068;42.158;24.732;2024-02-21T06:28:08;100442.94;;;7.60;100.00
8051;BME280;4068;42.158;24.732;2024-02-21T06:30:33;100454.56;;;7.74;100.00
8051;BME280;4068;42.158;24.732;2024-02-21T06:32:59;100442.56;;;7.84;100.00
8051;BME280;4068;42.158;24.732;2024-02-21T06:35:25;100448.28;;;7.92;100.00
8051;BME280;4068;42.158;24.732;2024-02-21T06:37:51;100459.25;;;8.01;100.00
8051;BME280;4068;42.158;24.732;2024-02-21T06:40:21;100429.25;;;7.86;100.00
8051;BME280;4068;42.158;24.732;2024-02-21T06:42:47;100452.94;;;8.19;100.00
8051;BME280;4068;42.158;24.732;2024-02-21T06:45:13;100454.06;;;8.15;100.00
8051;BME280;4068;42.158;24.732;2024-02-21T06:47:38;100469.66;;;8.36;100.00
8051;BME280;4068;42.158;24.732;2024-02-21T06:50:04;100471.75;;;8.46;100.00
8051;BME280;4068;42.158;24.732;2024-02-21T06:52:30;100471.84;;;8.43;100.00
8051;BME280;4068;42.158;24.732;2024-02-21T06:54:56;100471.47;;;8.51;100.00
8051;BME280;4068;42.158;24.732;2024-02-21T06:57:21;100483.13;;;8.63;100.00
8051;BME280;4068;42.158;24.732;2024-02-21T06:59:47;100487.81;;;8.74;100.00
8051;BME280;4068;42.158;24.732;2024-02-21T07:02:12;100476.78;;;8.81;100.00
8051;BME280;4068;42.158;24.732;2024-02-21T07:04:38;100485.66;;;9.11;100.00
8051;BME280;4068;42.158;24.732;2024-02-21T07:07:03;100488.88;;;9.30;100.00
8051;BME280;4068;42.158;24.732;2024-02-21T07:09:29;100498.56;;;9.60;100.00
8051;BME280;4068;42.158;24.732;2024-02-21T07:12:13;100502.47;;;9.69;100.00
8051;BME280;4068;42.158;24.732;2024-02-21T07:14:39;100487.88;;;9.91;100.00
8051;BME280;4068;42.158;24.732;2024-02-21T07:17:04;100497.00;;;10.14;100.00
8051;BME280;4068;42.158;24.732;2024-02-21T07:19:29;100494.13;;;10.31;100.00
8051;BME280;4068;42.158;24.732;2024-02-21T07:21:55;100494.28;;;10.57;100.00
8051;BME280;4068;42.158;24.732;2024-02-21T07:24:21;100489.16;;;10.54;100.00
8051;BME280;4068;42.158;24.732;2024-02-21T07:26:47;100487.22;;;10.70;100.00
8051;BME280;4068;42.158;24.732;2024-02-21T07:29:13;100486.09;;;10.87;100.00
8051;BME280;4068;42.158;24.732;2024-02-21T07:31:42;100476.78;;;10.95;100.00
8051;BME280;4068;42.158;24.732;2024-02-21T07:34:08;100478.72;;;11.18;100.00
8051;BME280;4068;42.158;24.732;2024-02-21T07:36:34;100485.19;;;11.40;100.00
8051;BME280;4068;42.158;24.732;2024-02-21T07:39:00;100497.31;;;11.44;100.00
8051;BME280;4068;42.158;24.732;2024-02-21T07:41:25;100487.97;;;11.51;100.00
8051;BME280;4068;42.158;24.732;2024-02-21T07:43:51;100500.84;;;11.70;100.00
8051;BME280;4068;42.158;24.732;2024-02-21T07:46:18;100494.84;;;11.80;100.00
8051;BME280;4068;42.158;24.732;2024-02-21T07:48:45;100493.78;;;11.82;98.89
8051;BME280;4068;42.158;24.732;2024-02-21T07:51:12;100491.56;;;12.02;98.07
8051;BME280;4068;42.158;24.732;2024-02-21T07:53:38;100493.34;;;12.01;96.99
8051;BME280;4068;42.158;24.732;2024-02-21T07:56:04;100491.03;;;11.97;98.41
8051;BME280;4068;42.158;24.732;2024-02-21T07:58:30;100497.19;;;12.10;99.51
8051;BME280;4068;42.158;24.732;2024-02-21T08:00:55;100495.22;;;12.25;97.76
8051;BME280;4068;42.158;24.732;2024-02-21T08:03:21;100496.31;;;12.47;95.66
8051;BME280;4068;42.158;24.732;2024-02-21T08:05:46;100489.63;;;12.65;94.05
8051;BME280;4068;42.158;24.732;2024-02-21T08:08:12;100496.38;;;12.58;91.86
8051;BME280;4068;42.158;24.732;2024-02-21T08:10:43;100481.72;;;12.52;90.40
8051;BME280;4068;42.158;24.732;2024-02-21T08:13:09;100497.38;;;12.68;92.19
8051;BME280;4068;42.158;24.732;2024-02-21T08:15:34;100490.31;;;12.56;92.47
8051;BME280;4068;42.158;24.732;2024-02-21T08:18:00;100481.53;;;12.42;92.17
8051;BME280;4068;42.158;24.732;2024-02-21T08:20:27;100487.72;;;12.43;93.47
8051;BME280;4068;42.158;24.732;2024-02-21T08:22:52;100488.38;;;12.34;94.09
8051;BME280;4068;42.158;24.732;2024-02-21T08:25:18;100476.31;;;12.41;94.63
8051;BME280;4068;42.158;24.732;2024-02-21T08:27:43;100485.22;;;12.77;93.91
8051;BME280;4068;42.158;24.732;2024-02-21T08:30:10;100497.88;;;12.98;89.09
8051;BME280;4068;42.158;24.732;2024-02-21T08:32:36;100501.25;;;13.00;86.11
8051;BME280;4068;42.158;24.732;2024-02-21T08:35:02;100496.31;;;13.06;84.48
8051;BME280;4068;42.158;24.732;2024-02-21T08:37:28;100467.34;;;12.90;83.06
8051;BME280;4068;42.158;24.732;2024-02-21T08:39:54;100472.31;;;12.95;83.44
8051;BME280;4068;42.158;24.732;2024-02-21T08:42:19;100504.59;;;13.15;84.50
8051;BME280;4068;42.158;24.732;2024-02-21T08:44:45;100496.03;;;13.34;84.46
8051;BME280;4068;42.158;24.732;2024-02-21T08:47:11;100492.53;;;13.33;83.25
8051;BME280;4068;42.158;24.732;2024-02-21T08:49:36;100502.13;;;13.36;82.01
8051;BME280;4068;42.158;24.732;2024-02-21T08:52:03;100503.28;;;13.20;82.14
8051;BME280;4068;42.158;24.732;2024-02-21T08:54:28;100500.72;;;13.19;83.13
8051;BME280;4068;42.158;24.732;2024-02-21T08:56:54;100493.88;;;12.92;84.17
8051;BME280;4068;42.158;24.732;2024-02-21T08:59:20;100487.06;;;12.88;84.41
8051;BME280;4068;42.158;24.732;2024-02-21T09:01:46;100494.78;;;12.80;85.03
8051;BME280;4068;42.158;24.732;2024-02-21T09:04:11;100503.75;;;12.78;85.15
8051;BME280;4068;42.158;24.732;2024-02-21T09:06:37;100505.38;;;12.68;85.16
8051;BME280;4068;42.158;24.732;2024-02-21T09:09:07;100498.91;;;12.59;84.36
8051;BME280;4068;42.158;24.732;2024-02-21T09:11:34;100497.56;;;12.54;83.53
8051;BME280;4068;42.158;24.732;2024-02-21T09:13:59;100499.38;;;12.29;84.87
8051;BME280;4068;42.158;24.732;2024-02-21T09:16:25;100487.13;;;12.26;85.86
8051;BME280;4068;42.158;24.732;2024-02-21T09:18:50;100501.25;;;12.40;84.94
8051;BME280;4068;42.158;24.732;2024-02-21T09:21:18;100485.13;;;12.54;85.63
8051;BME280;4068;42.158;24.732;2024-02-21T09:23:44;100475.66;;;12.50;83.86
8051;BME280;4068;42.158;24.732;2024-02-21T09:26:10;100482.78;;;12.50;84.48
8051;BME280;4068;42.158;24.732;2024-02-21T09:28:39;100448.84;;;12.29;84.77
8051;BME280;4068;42.158;24.732;2024-02-21T09:31:04;100481.81;;;12.51;82.80
8051;BME280;4068;42.158;24.732;2024-02-21T09:33:30;100465.66;;;12.17;82.70
8051;BME280;4068;42.158;24.732;2024-02-21T09:35:55;100465.78;;;12.15;84.94
8051;BME280;4068;42.158;24.732;2024-02-21T09:38:21;100471.59;;;12.33;84.74
8051;BME280;4068;42.158;24.732;2024-02-21T09:40:46;100473.00;;;12.50;85.40
8051;BME280;4068;42.158;24.732;2024-02-21T09:43:17;100469.66;;;12.59;84.42
8051;BME280;4068;42.158;24.732;2024-02-21T09:45:46;100473.28;;;12.58;84.60
8051;BME280;4068;42.158;24.732;2024-02-21T09:51:09;100454.88;;;12.55;83.93
8051;BME280;4068;42.158;24.732;2024-02-21T09:53:37;100473.41;;;12.92;82.78
8051;BME280;4068;42.158;24.732;2024-02-21T09:56:05;100470.41;;;12.97;81.59
8051;BME280;4068;42.158;24.732;2024-02-21T09:58:32;100470.66;;;13.05;81.17
8051;BME280;4068;42.158;24.732;2024-02-21T10:00:59;100449.88;;;12.75;82.38
8051;BME280;4068;42.158;24.732;2024-02-21T10:03:25;100458.66;;;12.88;81.96
8051;BME280;4068;42.158;24.732;2024-02-21T10:05:51;100419.47;;;13.02;81.51
8051;BME280;4068;42.158;24.732;2024-02-21T10:08:16;100450.25;;;13.17;80.53
8051;BME280;4068;42.158;24.732;2024-02-21T10:10:43;100449.13;;;13.44;79.45
8051;BME280;4068;42.158;24.732;2024-02-21T10:13:10;100455.66;;;13.51;76.93
8051;BME280;4068;42.158;24.732;2024-02-21T10:15:36;100438.66;;;13.41;76.96
8051;BME280;4068;42.158;24.732;2024-02-21T10:18:02;100446.78;;;13.73;76.18
8051;BME280;4068;42.158;24.732;2024-02-21T10:20:32;100426.34;;;13.74;71.51
8051;BME280;4068;42.158;24.732;2024-02-21T10:23:05;100444.38;;;13.81;69.11
8051;BME280;4068;42.158;24.732;2024-02-21T10:25:36;100432.88;;;13.81;67.73
8051;BME280;4068;42.158;24.732;2024-02-21T10:28:13;100424.63;;;13.84;65.38
8051;BME280;4068;42.158;24.732;2024-02-21T10:30:50;100390.25;;;13.58;66.22
8051;BME280;4068;42.158;24.732;2024-02-21T10:33:16;100394.13;;;13.54;66.67
8051;BME280;4068;42.158;24.732;2024-02-21T10:35:41;100399.31;;;13.67;66.59
8051;BME280;4068;42.158;24.732;2024-02-21T10:38:07;100401.94;;;13.90;65.80
8051;BME280;4068;42.158;24.732;2024-02-21T10:40:32;100396.31;;;14.15;64.46
8051;BME280;4068;42.158;24.732;2024-02-21T10:43:02;100365.13;;;14.16;62.83
8051;BME280;4068;42.158;24.732;2024-02-21T10:45:30;100364.19;;;14.17;61.68
8051;BME280;4068;42.158;24.732;2024-02-21T10:48:22;100372.47;;;14.03;63.61
8051;BME280;4068;42.158;24.732;2024-02-21T10:51:01;100374.06;;;14.26;63.64
8051;BME280;4068;42.158;24.732;2024-02-21T10:56:34;100369.50;;;14.17;61.94
8051;BME280;4068;42.158;24.732;2024-02-21T10:59:06;100367.38;;;14.32;61.24
8051;BME280;4068;42.158;24.732;2024-02-21T11:01:32;100357.75;;;14.41;60.01
8051;BME280;4068;42.158;24.732;2024-02-21T11:04:08;100350.75;;;14.40;59.60
8051;BME280;4068;42.158;24.732;2024-02-21T11:06:38;100342.00;;;14.38;58.47
8051;BME280;4068;42.158;24.732;2024-02-21T11:09:05;100346.78;;;14.55;58.50
8051;BME280;4068;42.158;24.732;2024-02-21T11:11:42;100326.41;;;14.54;58.18
8051;BME280;4068;42.158;24.732;2024-02-21T11:14:17;100332.47;;;14.77;58.22
8051;BME280;4068;42.158;24.732;2024-02-21T11:16:43;100337.09;;;14.96;56.76
8051;BME280;4068;42.158;24.732;2024-02-21T11:19:18;100339.84;;;14.85;56.86
8051;BME280;4068;42.158;24.732;2024-02-21T11:21:44;100303.31;;;14.64;57.27
8051;BME280;4068;42.158;24.732;2024-02-21T11:24:10;100298.88;;;14.54;57.72
8051;BME280;4068;42.158;24.732;2024-02-21T11:26:37;100325.69;;;14.73;58.37
8051;BME280;4068;42.158;24.732;2024-02-21T11:29:03;100332.00;;;14.93;56.27
8051;BME280;4068;42.158;24.732;2024-02-21T11:31:40;100304.25;;;14.84;56.02
8051;BME280;4068;42.158;24.732;2024-02-21T11:34:09;100305.75;;;14.98;55.35
8051;BME280;4068;42.158;24.732;2024-02-21T11:36:34;100318.59;;;15.14;55.54
8051;BME280;4068;42.158;24.732;2024-02-21T11:39:04;100283.78;;;14.85;55.42
8051;BME280;4068;42.158;24.732;2024-02-21T11:41:31;100317.19;;;15.10;55.65
8051;BME280;4068;42.158;24.732;2024-02-21T11:43:57;100309.97;;;15.01;55.01
8051;BME280;4068;42.158;24.732;2024-02-21T11:46:22;100307.59;;;15.08;55.50
8051;BME280;4068;42.158;24.732;2024-02-21T11:48:49;100304.78;;;14.99;55.05
8051;BME280;4068;42.158;24.732;2024-02-21T11:51:35;100296.16;;;14.96;54.98
8051;BME280;4068;42.158;24.732;2024-02-21T11:54:00;100301.78;;;15.24;54.35
8051;BME280;4068;42.158;24.732;2024-02-21T11:56:26;100296.81;;;15.09;54.03
8051;BME280;4068;42.158;24.732;2024-02-21T11:58:51;100266.38;;;14.91;54.27
8051;BME280;4068;42.158;24.732;2024-02-21T12:01:17;100272.44;;;14.72;54.71
8051;BME280;4068;42.158;24.732;2024-02-21T12:03:43;100291.88;;;14.83;53.71
8051;BME280;4068;42.158;24.732;2024-02-21T12:06:15;100288.09;;;14.86;52.71
8051;BME280;4068;42.158;24.732;2024-02-21T12:08:45;100285.94;;;14.70;53.69
8051;BME280;4068;42.158;24.732;2024-02-21T12:11:22;100270.78;;;14.80;53.39
8051;BME280;4068;42.158;24.732;2024-02-21T12:14:08;100276.72;;;15.15;52.79
8051;BME280;4068;42.158;24.732;2024-02-21T12:16:34;100273.44;;;15.42;52.09
8051;BME280;4068;42.158;24.732;2024-02-21T12:19:02;100232.19;;;15.45;51.86
8051;BME280;4068;42.158;24.732;2024-02-21T12:21:32;100261.50;;;15.76;50.49
8051;BME280;4068;42.158;24.732;2024-02-21T12:24:00;100258.88;;;15.85;50.84
8051;BME280;4068;42.158;24.732;2024-02-21T12:26:25;100249.28;;;15.83;50.45
8051;BME280;4068;42.158;24.732;2024-02-21T12:28:52;100248.59;;;15.81;50.63
8051;BME280;4068;42.158;24.732;2024-02-21T12:31:18;100248.84;;;15.87;50.76
8051;BME280;4068;42.158;24.732;2024-02-21T12:33:44;100239.44;;;15.93;50.03
8051;BME280;4068;42.158;24.732;2024-02-21T12:36:09;100240.28;;;15.84;49.43
8051;BME280;4068;42.158;24.732;2024-02-21T12:38:35;100237.28;;;15.77;49.74
8051;BME280;4068;42.158;24.732;2024-02-21T12:41:01;100218.91;;;15.84;48.75
8051;BME280;4068;42.158;24.732;2024-02-21T12:43:27;100226.47;;;16.08;48.18
8051;BME280;4068;42.158;24.732;2024-02-21T12:45:52;100219.69;;;16.24;47.92
8051;BME280;4068;42.158;24.732;2024-02-21T12:48:18;100213.84;;;15.91;47.41
8051;BME280;4068;42.158;24.732;2024-02-21T12:50:50;100206.34;;;15.84;48.45
8051;BME280;4068;42.158;24.732;2024-02-21T12:53:17;100214.50;;;16.12;47.86
8051;BME280;4068;42.158;24.732;2024-02-21T12:55:45;100205.72;;;16.39;46.91
8051;BME280;4068;42.158;24.732;2024-02-21T12:58:11;100199.75;;;16.55;46.73
8051;BME280;4068;42.158;24.732;2024-02-21T13:00:38;100197.28;;;16.72;45.68
8051;BME280;4068;42.158;24.732;2024-02-21T13:03:04;100178.22;;;16.85;45.46
8051;BME280;4068;42.158;24.732;2024-02-21T13:05:29;100174.66;;;16.84;45.01